Time;durP1;ratioP1;P1;durP2;ratioP2;P2;SDS_P1;SDS_P2;PMS_P1;PMS_P2;Temp;Humidity;BMP_temperature;BMP_pressure;BME280_temperature;BME280_humidity;BME280_pressure;Samples;Min_cycle;Max_cycle;Signal;HPM_P1;HPM_P2
2022/07/04 00:00:17;;;;;;;;;;;;;;;20.35;67.74;101317.91;4893300;28;122587;-82
2022/07/04 00:02:43;;;;;;;;;;;;;;;20.33;68.09;101314.84;4913248;28;120806;-83
2022/07/04 00:05:10;;;;;;;;;;;;;;;20.32;68.02;101313.31;4888436;28;121992;-83
2022/07/04 00:07:39;;;;;;;;;;;;;;;20.31;68.00;101313.81;4901691;28;120276;-82
2022/07/04 00:10:06;;;;;;;;;;;;;;;20.27;67.77;101314.06;4909712;28;120396;-83
2022/07/04 00:12:31;;;;;;;;;;;;;;;20.28;68.09;101312.03;4910409;28;121989;-83
2022/07/04 00:14:57;;;;;;;;;;;;;;;20.24;67.65;101318.63;4924184;28;120316;-83
2022/07/04 00:17:22;;;;;;;;;;;;;;;20.22;68.01;101310.00;4910248;28;121851;-82
2022/07/04 00:19:48;;;;;;;;;;;;;;;20.20;67.78;101317.34;4890916;28;122185;-83
2022/07/04 00:22:13;;;;;;;;;;;;;;;20.18;67.70;101317.09;4892104;28;123898;-83
2022/07/04 00:24:39;;;;;;;;;;;;;;;20.16;67.38;101300.88;4897550;28;120181;-82
2022/07/04 00:27:04;;;;;;;;;;;;;;;20.14;67.70;101302.66;4898755;28;120247;-83
2022/07/04 00:29:30;;;;;;;;;;;;;;;20.11;67.77;101301.63;4891159;28;120578;-83
2022/07/04 00:31:55;;;;;;;;;;;;;;;20.07;67.64;101308.69;4893879;28;121870;-83
2022/07/04 00:34:21;;;;;;;;;;;;;;;20.05;67.80;101300.84;4903378;28;120871;-83
2022/07/04 00:36:46;;;;;;;;;;;;;;;20.03;67.73;101295.00;4903306;28;122470;-82
2022/07/04 00:39:12;;;;;;;;;;;;;;;19.99;67.65;101305.63;4901490;28;122312;-82
2022/07/04 00:41:37;;;;;;;;;;;;;;;19.95;67.42;101302.34;4902508;28;120316;-83
2022/07/04 00:44:04;;;;;;;;;;;;;;;19.90;67.56;101301.06;4904296;28;120296;-82
2022/07/04 00:46:30;;;;;;;;;;;;;;;19.89;67.66;101307.88;4903743;28;120351;-83
2022/07/04 00:48:55;;;;;;;;;;;;;;;19.86;67.63;101302.53;4883246;28;121818;-83
2022/07/04 00:51:21;;;;;;;;;;;;;;;19.84;67.34;101307.84;4885231;28;120846;-83
2022/07/04 00:53:46;;;;;;;;;;;;;;;19.81;67.36;101298.47;4896395;28;120592;-83
2022/07/04 00:56:12;;;;;;;;;;;;;;;19.81;67.44;101300.50;4859051;28;120635;-83
2022/07/04 00:58:37;;;;;;;;;;;;;;;19.78;67.28;101298.72;4883408;28;122541;-83
2022/07/04 01:01:03;;;;;;;;;;;;;;;19.76;67.32;101298.44;4878325;28;123492;-83
2022/07/04 01:03:46;;;;;;;;;;;;;;;19.71;67.19;101305.53;4906047;28;120012;-83
2022/07/04 01:06:13;;;;;;;;;;;;;;;19.69;67.22;101296.91;4906621;28;120303;-83
2022/07/04 01:08:40;;;;;;;;;;;;;;;19.65;67.13;101290.06;4879587;28;123137;-82
2022/07/04 01:11:05;;;;;;;;;;;;;;;19.62;67.06;101289.00;4906695;28;120881;-83
2022/07/04 01:13:31;;;;;;;;;;;;;;;19.58;67.12;101291.28;4898757;28;123486;-83
2022/07/04 01:15:56;;;;;;;;;;;;;;;19.56;67.15;101289.00;4892441;28;120671;-82
2022/07/04 01:18:22;;;;;;;;;;;;;;;19.53;67.00;101287.22;4887495;28;121830;-82
2022/07/04 01:20:47;;;;;;;;;;;;;;;19.51;67.13;101295.28;4889964;28;123292;-83
2022/07/04 01:23:13;;;;;;;;;;;;;;;19.49;67.23;101291.47;4925126;28;121938;-83
2022/07/04 01:25:39;;;;;;;;;;;;;;;19.47;67.31;101291.97;4904716;28;120183;-83
2022/07/04 01:28:06;;;;;;;;;;;;;;;19.46;67.32;101293.22;4920623;28;120879;-82
2022/07/04 01:30:32;;;;;;;;;;;;;;;19.46;67.26;101292.47;4908256;28;119833;-83
2022/07/04 01:32:57;;;;;;;;;;;;;;;19.47;67.33;101297.53;4889313;28;123855;-83
2022/07/04 01:35:23;;;;;;;;;;;;;;;19.48;67.39;101306.63;4896516;28;120631;-83
2022/07/04 01:37:52;;;;;;;;;;;;;;;19.47;67.41;101307.91;4879672;28;121741;-83
2022/07/04 01:40:17;;;;;;;;;;;;;;;19.46;67.29;101309.91;4892764;28;123034;-83
2022/07/04 01:42:43;;;;;;;;;;;;;;;19.45;67.55;101311.19;4894309;28;120380;-83
2022/07/04 01:45:09;;;;;;;;;;;;;;;19.44;67.43;101304.09;4869471;28;121759;-83
2022/07/04 01:47:35;;;;;;;;;;;;;;;19.42;67.14;101303.06;4893095;28;123483;-83
2022/07/04 01:50:01;;;;;;;;;;;;;;;19.41;67.43;101310.66;4879677;28;120122;-83
2022/07/04 01:52:26;;;;;;;;;;;;;;;19.40;67.39;101309.13;4904217;28;122379;-83
2022/07/04 01:54:52;;;;;;;;;;;;;;;19.39;67.08;101306.81;4892311;28;120398;-83
2022/07/04 01:57:17;;;;;;;;;;;;;;;19.36;67.20;101305.78;4895862;28;120035;-83
2022/07/04 02:02:27;;;;;;;;;;;;;;;19.30;67.21;101311.31;4895862;28;121571;-83
2022/07/04 02:04:53;;;;;;;;;;;;;;;19.28;66.98;101308.28;4889066;28;121950;-83
2022/07/04 02:07:18;;;;;;;;;;;;;;;19.26;67.14;101316.38;4894938;28;123506;-83
2022/07/04 02:09:44;;;;;;;;;;;;;;;19.24;67.13;101313.31;4912785;28;120379;-82
2022/07/04 02:14:54;;;;;;;;;;;;;;;19.22;67.11;101312.28;4894543;28;120090;-83
2022/07/04 02:17:19;;;;;;;;;;;;;;;19.20;67.15;101309.25;4888500;28;121589;-83
2022/07/04 02:19:45;;;;;;;;;;;;;;;19.18;67.14;101312.53;4910673;28;123778;-82
2022/07/04 02:22:11;;;;;;;;;;;;;;;19.18;67.21;101303.41;4902574;28;119865;-82
2022/07/04 02:24:36;;;;;;;;;;;;;;;19.17;67.27;101313.03;4894442;28;121680;-82
2022/07/04 02:27:02;;;;;;;;;;;;;;;19.15;66.83;101301.59;4887825;28;123131;-82
2022/07/04 02:29:27;;;;;;;;;;;;;;;19.12;67.18;101305.38;4906571;28;120084;-83
2022/07/04 02:31:53;;;;;;;;;;;;;;;19.11;67.03;101306.63;4886086;28;122547;-82
2022/07/04 02:34:18;;;;;;;;;;;;;;;19.08;66.79;101300.03;4900923;28;123217;-82
2022/07/04 02:37:10;;;;;;;;;;;;;;;19.06;66.66;101302.56;4877327;28;120234;-82
2022/07/04 02:39:36;;;;;;;;;;;;;;;19.05;66.93;101298.25;4878652;28;121792;-82
2022/07/04 02:42:04;;;;;;;;;;;;;;;19.02;66.77;101296.47;4915768;28;120338;-82
2022/07/04 02:44:30;;;;;;;;;;;;;;;19.01;66.60;101308.84;4896593;28;122119;-82
2022/07/04 02:46:55;;;;;;;;;;;;;;;18.99;66.88;101303.03;4894444;28;121778;-82
2022/07/04 02:49:21;;;;;;;;;;;;;;;18.96;66.86;101302.00;4891848;28;120247;-82
2022/07/04 02:51:46;;;;;;;;;;;;;;;18.95;nan;101306.03;4893667;28;119834;-82
2022/07/04 02:54:12;;;;;;;;;;;;;;;18.93;66.69;101305.78;4911252;28;122819;-82
2022/07/04 02:56:37;;;;;;;;;;;;;;;18.91;66.74;101311.03;4915607;28;120777;-82
2022/07/04 02:59:03;;;;;;;;;;;;;;;18.90;66.82;101322.66;4905669;28;123805;-82
2022/07/04 03:01:28;;;;;;;;;;;;;;;18.87;66.80;101310.50;4910775;28;120127;-83
2022/07/04 03:03:57;;;;;;;;;;;;;;;18.85;66.76;101306.69;4910985;28;121080;-82
2022/07/04 03:06:30;;;;;;;;;;;;;;;18.83;66.76;101315.53;4858765;28;122668;-83
2022/07/04 03:08:55;;;;;;;;;;;;;;;18.82;66.85;101310.47;4860942;28;119953;-82
2022/07/04 03:11:21;;;;;;;;;;;;;;;18.80;66.81;101313.72;4879761;28;121522;-82
2022/07/04 03:13:46;;;;;;;;;;;;;;;18.79;66.71;101317.78;4910678;28;120130;-82
2022/07/04 03:16:12;;;;;;;;;;;;;;;18.78;67.06;101315.47;4894090;28;120080;-82
2022/07/04 03:18:37;;;;;;;;;;;;;;;18.78;66.91;101321.03;4914606;28;122803;-82
2022/07/04 03:21:04;;;;;;;;;;;;;;;18.79;67.11;101317.00;4911794;28;121572;-83
2022/07/04 03:23:31;;;;;;;;;;;;;;;18.79;66.96;101317.78;4894999;28;122267;-83
2022/07/04 03:25:56;;;;;;;;;;;;;;;18.80;67.11;101319.28;4884405;28;123980;-82
2022/07/04 03:28:22;;;;;;;;;;;;;;;18.79;66.90;101322.56;4890896;28;120163;-82
2022/07/04 03:30:47;;;;;;;;;;;;;;;18.78;67.01;101315.47;4904018;28;122169;-82
2022/07/04 03:33:13;;;;;;;;;;;;;;;18.76;66.95;101321.53;4877852;28;123573;-82
2022/07/04 03:35:47;;;;;;;;;;;;;;;18.77;66.96;101322.28;4895239;28;120277;-82
2022/07/04 03:38:12;;;;;;;;;;;;;;;18.76;66.82;101324.31;4916921;28;119827;-82
2022/07/04 03:40:38;;;;;;;;;;;;;;;18.77;67.17;101333.41;4911229;28;120056;-82
2022/07/04 03:43:07;;;;;;;;;;;;;;;18.76;67.22;101329.88;4876435;28;121859;-82
2022/07/04 03:45:33;;;;;;;;;;;;;;;18.76;67.02;101329.88;4907693;28;120356;-82
2022/07/04 03:47:58;;;;;;;;;;;;;;;18.76;67.01;101332.66;4911976;28;120323;-82
2022/07/04 03:50:24;;;;;;;;;;;;;;;18.76;67.13;101334.66;4895112;28;120468;-82
2022/07/04 03:52:49;;;;;;;;;;;;;;;18.77;67.07;101327.84;4911254;28;120163;-82
2022/07/04 03:55:15;;;;;;;;;;;;;;;18.79;67.44;101330.91;4892945;28;120352;-82
2022/07/04 03:57:40;;;;;;;;;;;;;;;18.80;67.37;101332.44;4911548;28;121868;-82
2022/07/04 04:00:07;;;;;;;;;;;;;;;18.83;67.54;101328.66;4914942;28;122404;-82
2022/07/04 04:02:38;;;;;;;;;;;;;;;18.87;67.55;101321.63;4910618;28;122667;-83
2022/07/04 04:07:50;;;;;;;;;;;;;;;18.97;67.36;101327.78;4895326;28;120053;-83
2022/07/04 04:10:16;;;;;;;;;;;;;;;19.04;67.46;101326.56;4891945;28;122542;-82
2022/07/04 04:12:41;;;;;;;;;;;;;;;19.08;67.24;101336.19;4881180;28;123005;-82
2022/07/04 04:15:07;;;;;;;;;;;;;;;19.13;67.07;101337.50;4907943;28;120491;-83
2022/07/04 04:18:02;;;;;;;;;;;;;;;19.16;67.12;101339.28;4895482;28;120203;-83
2022/07/04 04:20:27;;;;;;;;;;;;;;;19.19;67.04;101330.72;4894239;28;123517;-82
2022/07/04 04:22:53;;;;;;;;;;;;;;;19.22;66.89;101337.31;4899512;28;120262;-82
2022/07/04 04:25:18;;;;;;;;;;;;;;;19.25;66.94;101342.66;4873536;28;124267;-82
2022/07/04 04:27:44;;;;;;;;;;;;;;;19.27;67.12;101333.81;4900428;28;120411;-83
2022/07/04 04:30:10;;;;;;;;;;;;;;;19.29;67.33;101337.63;4879049;28;121708;-83
2022/07/04 04:32:35;;;;;;;;;;;;;;;19.31;67.22;101339.91;4893625;28;123044;-83
2022/07/04 04:35:01;;;;;;;;;;;;;;;19.32;67.47;101338.66;4893674;28;120456;-82
2022/07/04 04:37:26;;;;;;;;;;;;;;;19.33;67.60;101343.72;4882281;28;119843;-82
2022/07/04 04:39:52;;;;;;;;;;;;;;;19.37;67.45;101343.47;4894361;28;123699;-82
2022/07/04 04:42:17;;;;;;;;;;;;;;;19.39;67.56;101340.97;4893968;28;121511;-82
2022/07/04 04:44:43;;;;;;;;;;;;;;;19.41;67.77;101344.03;4913445;28;120948;-82
2022/07/04 04:47:08;;;;;;;;;;;;;;;19.46;67.90;101342.53;4893598;28;122241;-82
2022/07/04 04:49:34;;;;;;;;;;;;;;;19.47;67.79;101353.19;4894711;28;121814;-82
2022/07/04 04:51:59;;;;;;;;;;;;;;;19.48;67.76;101343.56;4911379;28;120693;-83
2022/07/04 04:54:33;;;;;;;;;;;;;;;19.50;67.82;101348.63;4896027;28;119908;-82
2022/07/04 04:56:59;;;;;;;;;;;;;;;19.51;68.12;101348.13;4906075;28;119897;-82
2022/07/04 04:59:24;;;;;;;;;;;;;;;19.53;68.14;101334.50;4869587;28;123017;-82
2022/07/04 05:01:50;;;;;;;;;;;;;;;19.56;68.14;101333.50;4902553;28;120479;-82
2022/07/04 05:04:15;;;;;;;;;;;;;;;19.60;68.37;101325.69;4912962;28;121938;-82
2022/07/04 05:06:41;;;;;;;;;;;;;;;19.62;68.29;101331.53;4885387;28;123755;-83
2022/07/04 05:09:06;;;;;;;;;;;;;;;19.67;68.55;101330.06;4903933;28;120431;-83
2022/07/04 05:11:32;;;;;;;;;;;;;;;19.69;68.61;101340.69;4909269;28;120391;-82
2022/07/04 05:14:05;;;;;;;;;;;;;;;19.70;68.24;101345.75;4883633;28;120064;-82
2022/07/04 05:16:31;;;;;;;;;;;;;;;19.72;68.07;101348.03;4913630;28;122502;-83
2022/07/04 05:18:56;;;;;;;;;;;;;;;19.74;68.24;101353.88;4877123;28;124232;-82
2022/07/04 05:21:22;;;;;;;;;;;;;;;19.77;68.28;101350.06;4878955;28;120618;-83
2022/07/04 05:23:48;;;;;;;;;;;;;;;19.79;68.21;101350.34;4872916;28;122254;-84
2022/07/04 05:26:13;;;;;;;;;;;;;;;19.79;68.07;101350.34;4900763;28;120744;-82
2022/07/04 05:28:39;;;;;;;;;;;;;;;19.81;68.30;101348.56;4914319;28;120182;-82
2022/07/04 05:31:04;;;;;;;;;;;;;;;19.83;68.11;101356.44;4908538;28;120389;-82
2022/07/04 05:33:29;;;;;;;;;;;;;;;19.83;68.31;101348.84;4894326;28;120094;-82
2022/07/04 05:35:55;;;;;;;;;;;;;;;19.87;68.21;101351.38;4887584;28;122398;-82
2022/07/04 05:38:20;;;;;;;;;;;;;;;19.86;68.25;101350.63;4886325;28;123231;-83
2022/07/04 05:40:46;;;;;;;;;;;;;;;19.88;68.12;101364.06;4876875;28;120737;-83
2022/07/04 05:43:11;;;;;;;;;;;;;;;19.90;68.38;101355.97;4889170;28;121670;-83
2022/07/04 05:45:37;;;;;;;;;;;;;;;19.92;68.25;101354.22;4885426;28;121418;-82
2022/07/04 05:48:06;;;;;;;;;;;;;;;19.96;68.54;101361.56;4909544;28;120646;-82
2022/07/04 05:50:31;;;;;;;;;;;;;;;19.98;68.51;101357.00;4893290;28;123615;-83
2022/07/04 05:52:57;;;;;;;;;;;;;;;19.99;68.36;101350.19;4887803;28;120900;-83
2022/07/04 05:55:22;;;;;;;;;;;;;;;20.00;68.46;101354.50;4893451;28;120384;-82
2022/07/04 05:57:48;;;;;;;;;;;;;;;20.03;68.40;101359.06;4874040;28;123909;-82
2022/07/04 06:00:13;;;;;;;;;;;;;;;20.05;68.53;101356.53;4874198;28;121280;-82
2022/07/04 06:02:39;;;;;;;;;;;;;;;20.07;68.58;101351.22;4906125;28;120079;-83
2022/07/04 06:05:05;;;;;;;;;;;;;;;20.08;68.22;101352.75;4903966;28;120627;-82
2022/07/04 06:07:30;;;;;;;;;;;;;;;20.09;68.27;101348.69;4906412;28;120753;-83
2022/07/04 06:09:57;;;;;;;;;;;;;;;20.09;68.11;101353.50;4877309;28;122438;-83
2022/07/04 06:12:30;;;;;;;;;;;;;;;20.12;68.20;101356.06;4909894;28;120406;-84
2022/07/04 06:14:58;;;;;;;;;;;;;;;20.15;68.17;101360.63;4890325;28;122702;-83
2022/07/04 06:17:24;;;;;;;;;;;;;;;20.18;68.37;101365.19;4888663;28;123892;-82
2022/07/04 06:19:49;;;;;;;;;;;;;;;20.21;68.43;101361.41;4892801;28;120080;-84
2022/07/04 06:22:17;;;;;;;;;;;;;;;20.22;68.00;101353.81;4917517;28;120766;-83
2022/07/04 06:24:43;;;;;;;;;;;;;;;20.24;67.77;101362.44;4903975;28;123038;-83
2022/07/04 06:27:08;;;;;;;;;;;;;;;20.27;67.87;101358.63;4903420;28;121465;-83
2022/07/04 06:29:34;;;;;;;;;;;;;;;20.33;67.73;101361.44;4885939;28;121826;-83
2022/07/04 06:31:59;;;;;;;;;;;;;;;20.36;67.80;101369.56;4919819;28;120461;-83
2022/07/04 06:37:09;;;;;;;;;;;;;;;20.40;67.49;101352.59;4889022;28;123622;-83
2022/07/04 06:39:34;;;;;;;;;;;;;;;20.42;67.89;101355.69;4885494;28;120088;-83
2022/07/04 06:42:00;;;;;;;;;;;;;;;20.46;67.37;101364.56;4899740;28;122569;-83
2022/07/04 06:44:25;;;;;;;;;;;;;;;20.50;67.56;101351.13;4905117;28;120729;-83
2022/07/04 06:46:51;;;;;;;;;;;;;;;20.53;67.11;101353.66;4904464;28;122356;-82
2022/07/04 06:49:17;;;;;;;;;;;;;;;20.57;67.20;101350.63;4905002;28;123069;-83
2022/07/04 06:51:42;;;;;;;;;;;;;;;20.61;66.75;101345.59;4899991;28;124533;-83
2022/07/04 06:54:08;;;;;;;;;;;;;;;20.65;67.20;101357.25;4890538;28;121599;-83
2022/07/04 06:56:33;;;;;;;;;;;;;;;20.68;66.95;101355.47;4903388;28;120819;-83
2022/07/04 06:58:59;;;;;;;;;;;;;;;20.68;66.56;101344.31;4884117;28;120262;-82
2022/07/04 07:01:24;;;;;;;;;;;;;;;20.66;66.10;101342.03;4883697;28;122214;-83
2022/07/04 07:03:50;;;;;;;;;;;;;;;20.66;66.04;101349.66;4906888;28;120974;-83
2022/07/04 07:06:16;;;;;;;;;;;;;;;20.65;66.27;101357.25;4881868;28;121539;-83
2022/07/04 07:08:41;;;;;;;;;;;;;;;20.62;66.23;101347.13;4887821;28;121861;-83
2022/07/04 07:11:27;;;;;;;;;;;;;;;20.59;66.59;101353.69;4893304;28;122145;-83
2022/07/04 07:13:53;;;;;;;;;;;;;;;20.59;66.26;101353.69;4887730;28;120647;-84
2022/07/04 07:16:18;;;;;;;;;;;;;;;20.60;66.60;101355.22;4905148;28;120926;-84
2022/07/04 07:18:44;;;;;;;;;;;;;;;20.64;66.79;101352.94;4877143;28;123028;-84
2022/07/04 07:21:10;;;;;;;;;;;;;;;20.66;66.50;101352.44;4875586;28;122158;-84
2022/07/04 07:23:42;;;;;;;;;;;;;;;20.68;66.61;101347.88;4904957;28;123606;-84
2022/07/04 07:26:08;;;;;;;;;;;;;;;20.70;66.88;101352.94;4891069;28;120447;-84
2022/07/04 07:28:36;;;;;;;;;;;;;;;20.70;66.51;101350.16;4888179;28;122471;-86
2022/07/04 07:31:02;;;;;;;;;;;;;;;20.72;66.36;101344.84;4900930;28;120687;-84
2022/07/04 07:33:28;;;;;;;;;;;;;;;20.76;66.75;101339.75;4901753;28;120633;-83
2022/07/04 07:35:53;;;;;;;;;;;;;;;20.80;66.64;101345.84;4905684;28;122128;-84
2022/07/04 07:38:45;;;;;;;;;;;;;;;20.84;66.09;101347.16;4894651;28;120454;-85
2022/07/04 07:41:10;;;;;;;;;;;;;;;20.90;66.27;101343.59;4868437;28;122542;-84
2022/07/04 07:43:36;;;;;;;;;;;;;;;20.98;66.63;101331.41;4885712;28;123720;-85
2022/07/04 07:46:04;;;;;;;;;;;;;;;21.07;66.44;101347.16;4884651;28;120634;-84
2022/07/04 07:48:30;;;;;;;;;;;;;;;21.16;66.19;101349.66;4891193;28;122649;-84
2022/07/04 07:50:56;;;;;;;;;;;;;;;21.20;65.69;101352.97;4894403;28;124304;-84
2022/07/04 07:53:21;;;;;;;;;;;;;;;21.22;65.74;101350.41;4887612;28;120428;-84
2022/07/04 07:55:47;;;;;;;;;;;;;;;21.24;65.57;101350.69;4895176;28;123073;-84
2022/07/04 07:58:12;;;;;;;;;;;;;;;21.26;65.87;101347.41;4880131;28;124350;-85
2022/07/04 08:00:40;;;;;;;;;;;;;;;21.25;65.10;101348.66;4864473;28;122704;-85
2022/07/04 08:05:50;;;;;;;;;;;;;;;21.23;64.92;101359.53;4900634;28;122782;-85
2022/07/04 08:08:15;;;;;;;;;;;;;;;21.27;64.78;101358.03;4891141;28;122547;-86
2022/07/04 08:10:44;;;;;;;;;;;;;;;21.35;64.73;101350.69;4876068;28;124465;-84
2022/07/04 08:13:10;;;;;;;;;;;;;;;21.41;64.31;101351.44;4876281;28;120858;-84
2022/07/04 08:15:35;;;;;;;;;;;;;;;21.43;64.66;101354.47;4891324;28;121491;-83
2022/07/04 08:18:04;;;;;;;;;;;;;;;21.42;64.61;101366.16;4890286;28;121238;-83
2022/07/04 08:20:29;;;;;;;;;;;;;;;21.35;64.59;101370.22;4894457;28;121355;-84
2022/07/04 08:22:55;;;;;;;;;;;;;;;21.26;64.81;101367.69;4903547;28;124783;-83
2022/07/04 08:25:21;;;;;;;;;;;;;;;21.15;65.28;101365.66;4907347;28;120616;-84
2022/07/04 08:27:47;;;;;;;;;;;;;;;21.03;65.21;101358.53;4891849;28;122383;-82
2022/07/04 08:30:15;;;;;;;;;;;;;;;20.93;65.39;101368.44;4907351;28;120681;-82
2022/07/04 08:32:41;;;;;;;;;;;;;;;20.86;66.08;101355.00;4890374;28;120370;-82
2022/07/04 08:35:06;;;;;;;;;;;;;;;20.83;65.85;101350.44;4905205;28;120384;-82
2022/07/04 08:37:32;;;;;;;;;;;;;;;20.83;66.43;101345.63;4874345;28;123348;-83
2022/07/04 08:39:57;;;;;;;;;;;;;;;20.83;66.94;101351.19;4906996;28;120441;-82
2022/07/04 08:42:23;;;;;;;;;;;;;;;20.84;66.71;101355.50;4894292;28;122874;-81
2022/07/04 08:44:50;;;;;;;;;;;;;;;20.87;67.01;101355.75;4906837;28;120612;-82
2022/07/04 08:47:23;;;;;;;;;;;;;;;20.91;67.73;101354.22;4876335;28;122020;-82
2022/07/04 08:49:53;;;;;;;;;;;;;;;20.98;67.96;101355.75;4873235;28;123393;-83
2022/07/04 08:52:27;;;;;;;;;;;;;;;21.08;67.89;101365.41;4872645;28;120832;-82
2022/07/04 09:00:22;;;;;;;;;;;;;;;21.25;68.16;101370.97;4905127;28;120511;-84
2022/07/04 09:02:51;;;;;;;;;;;;;;;21.37;68.52;101375.31;4890615;28;122656;-84
2022/07/04 09:05:40;;;;;;;;;;;;;;;21.50;68.66;101369.19;4889527;28;122485;-84
2022/07/04 09:08:06;;;;;;;;;;;;;;;21.56;68.32;101373.50;4888650;28;123669;-84
2022/07/04 09:10:32;;;;;;;;;;;;;;;21.58;67.29;101370.97;4890140;28;124366;-83
2022/07/04 09:12:58;;;;;;;;;;;;;;;21.60;67.89;101362.06;4890466;28;122334;-83
2022/07/04 09:15:24;;;;;;;;;;;;;;;21.67;67.88;101359.50;4888941;28;120854;-83
2022/07/04 09:17:50;;;;;;;;;;;;;;;21.75;67.35;101359.72;4898446;28;121712;-85
2022/07/04 09:20:16;;;;;;;;;;;;;;;21.83;67.28;101360.75;4871236;28;120951;-84
2022/07/04 09:22:44;;;;;;;;;;;;;;;21.91;66.97;101360.94;4888844;28;122887;-85
2022/07/04 09:25:14;;;;;;;;;;;;;;;21.99;67.09;101367.53;4898654;28;124557;-84
2022/07/04 09:27:41;;;;;;;;;;;;;;;22.09;66.66;101368.78;4890725;28;121890;-84
2022/07/04 09:30:07;;;;;;;;;;;;;;;22.14;66.24;101365.22;4889956;28;124817;-84
2022/07/04 09:32:59;;;;;;;;;;;;;;;22.23;65.85;101369.72;4902193;28;121773;-83
2022/07/04 09:35:25;;;;;;;;;;;;;;;22.22;65.28;101362.63;4887227;28;123638;-85
2022/07/04 09:37:52;;;;;;;;;;;;;;;22.14;64.73;101361.66;4868710;28;124467;-83
2022/07/04 09:40:28;;;;;;;;;;;;;;;22.07;64.73;101362.97;4876175;28;121912;-83
2022/07/04 09:43:14;;;;;;;;;;;;;;;22.04;64.52;101361.19;4875413;28;121174;-84
2022/07/04 09:45:52;;;;;;;;;;;;;;;22.07;64.74;101356.63;4891384;28;121467;-84
2022/07/04 09:48:18;;;;;;;;;;;;;;;22.11;64.29;101363.44;4912469;28;120989;-85
2022/07/04 09:50:53;;;;;;;;;;;;;;;22.12;64.67;101355.81;4899018;28;124818;-83
2022/07/04 09:53:19;;;;;;;;;;;;;;;22.08;63.88;101363.72;4892254;28;121830;-83
2022/07/04 09:55:49;;;;;;;;;;;;;;;21.99;63.38;101368.28;4912472;28;121189;-85
2022/07/04 09:58:15;;;;;;;;;;;;;;;21.89;63.20;101364.25;4884586;28;124066;-84
2022/07/04 10:00:42;;;;;;;;;;;;;;;21.81;62.96;101363.28;4907828;28;121040;-84
2022/07/04 10:03:27;;;;;;;;;;;;;;;21.70;62.90;101357.72;4886156;28;121138;-85
2022/07/04 10:06:05;;;;;;;;;;;;;;;21.63;62.83;101355.47;4900418;28;122107;-84
2022/07/04 10:08:33;;;;;;;;;;;;;;;21.57;63.60;101354.72;4903178;28;120892;-83
2022/07/04 10:11:00;;;;;;;;;;;;;;;21.53;63.52;101348.63;4889978;28;121956;-84
2022/07/04 10:13:26;;;;;;;;;;;;;;;21.51;63.67;101351.16;4910202;28;120787;-84
2022/07/04 10:15:51;;;;;;;;;;;;;;;21.59;64.08;101341.00;4911218;28;120751;-83
2022/07/04 10:18:18;;;;;;;;;;;;;;;21.66;63.49;101348.84;4886071;28;123603;-84
2022/07/04 10:20:44;;;;;;;;;;;;;;;21.75;63.89;101342.97;4896877;28;121020;-85
2022/07/04 10:23:10;;;;;;;;;;;;;;;21.84;63.10;101350.31;4886540;28;120866;-86
2022/07/04 10:25:36;;;;;;;;;;;;;;;21.91;63.44;101347.75;4888665;28;123969;-85
2022/07/04 10:28:02;;;;;;;;;;;;;;;22.00;63.48;101333.50;4889914;28;121635;-84
2022/07/04 10:30:29;;;;;;;;;;;;;;;22.14;63.38;101339.31;4876322;28;122758;-84
2022/07/04 10:32:57;;;;;;;;;;;;;;;22.26;62.93;101338.75;4888858;28;125335;-84
2022/07/04 10:35:41;;;;;;;;;;;;;;;22.35;61.98;101332.06;4903916;28;123894;-83
2022/07/04 10:38:07;;;;;;;;;;;;;;;22.43;62.12;101326.69;4886389;28;124969;-83
2022/07/04 10:40:43;;;;;;;;;;;;;;;22.46;61.33;101337.59;4907938;28;121342;-85
2022/07/04 10:43:29;;;;;;;;;;;;;;;22.44;61.07;101334.56;4903721;28;121177;-85
2022/07/04 10:45:55;;;;;;;;;;;;;;;22.38;61.18;101335.88;4883492;28;121318;-84
2022/07/04 10:48:22;;;;;;;;;;;;;;;22.33;60.97;101327.00;4886180;28;121370;-87
2022/07/04 10:51:01;;;;;;;;;;;;;;;22.28;60.44;101336.19;4901863;28;123996;-86
2022/07/04 10:53:27;;;;;;;;;;;;;;;22.24;60.61;101337.72;4875022;28;124908;-85
2022/07/04 10:56:28;;;;;;;;;;;;;;;22.18;60.09;101343.34;4901251;28;121108;-84
2022/07/04 10:59:01;;;;;;;;;;;;;;;22.12;60.31;101336.25;4844619;28;121670;-85
2022/07/04 11:01:26;;;;;;;;;;;;;;;22.05;60.61;101345.97;4918576;28;121299;-84
2022/07/04 11:03:53;;;;;;;;;;;;;;;22.04;60.44;101339.63;4870732;28;122798;-85
2022/07/04 11:06:43;;;;;;;;;;;;;;;22.09;60.54;101332.47;4873270;28;124606;-85
2022/07/04 11:09:15;;;;;;;;;;;;;;;22.17;60.19;101327.84;4886406;28;121615;-84
2022/07/04 11:11:53;;;;;;;;;;;;;;;22.25;60.78;101331.63;4885741;28;123206;-85
2022/07/04 11:14:35;;;;;;;;;;;;;;;22.32;60.34;101328.28;4900392;28;121758;-84
2022/07/04 11:17:01;;;;;;;;;;;;;;;22.39;59.88;101323.41;4885305;28;121881;-85
2022/07/04 11:19:29;;;;;;;;;;;;;;;22.45;60.05;101324.13;4891373;28;123140;-85
2022/07/04 11:21:55;;;;;;;;;;;;;;;22.49;60.40;101339.38;4886530;28;122003;-84
2022/07/04 11:24:21;;;;;;;;;;;;;;;22.51;59.51;101322.84;4885620;28;123385;-86
2022/07/04 11:26:47;;;;;;;;;;;;;;;22.50;59.09;101337.34;4884207;28;125402;-86
2022/07/04 11:29:13;;;;;;;;;;;;;;;22.45;59.21;101336.06;4887775;28;121288;-85
2022/07/04 11:31:39;;;;;;;;;;;;;;;22.42;59.04;101337.09;4919420;28;121781;-83
2022/07/04 11:34:05;;;;;;;;;;;;;;;22.44;59.69;101328.97;4901639;28;121426;-86
2022/07/04 11:36:31;;;;;;;;;;;;;;;22.43;59.05;101327.44;4872643;28;121127;-84
2022/07/04 11:39:01;;;;;;;;;;;;;;;22.44;58.72;101334.56;4886526;28;124424;-84
2022/07/04 11:47:07;;;;;;;;;;;;;;;22.43;59.17;101332.28;4902563;28;121947;-85
2022/07/04 11:49:33;;;;;;;;;;;;;;;22.44;58.97;101328.97;4905953;28;121578;-85
2022/07/04 11:51:58;;;;;;;;;;;;;;;22.46;58.46;101325.66;4904885;28;121292;-87
2022/07/04 11:54:24;;;;;;;;;;;;;;;22.45;57.39;101324.88;4891154;28;124849;-85
2022/07/04 11:56:50;;;;;;;;;;;;;;;22.44;58.05;101331.75;4886137;28;121344;-85
2022/07/04 11:59:16;;;;;;;;;;;;;;;22.43;57.93;101327.44;4885360;28;123728;-87
2022/07/04 12:01:42;;;;;;;;;;;;;;;22.44;58.45;101322.63;4871135;28;124960;-85
2022/07/04 12:04:26;;;;;;;;;;;;;;;22.45;57.77;101327.69;4886482;28;122919;-85
2022/07/04 12:06:51;;;;;;;;;;;;;;;22.47;57.71;101330.72;4904914;28;124167;-84
2022/07/04 12:09:17;;;;;;;;;;;;;;;22.51;58.24;101322.09;4885876;28;122222;-86
2022/07/04 12:11:59;;;;;;;;;;;;;;;22.55;57.88;101320.50;4869992;28;123653;-85
2022/07/04 12:14:27;;;;;;;;;;;;;;;22.60;57.87;101308.53;4890890;28;125133;-86
2022/07/04 12:17:09;;;;;;;;;;;;;;;22.64;57.80;101309.00;4900110;28;122024;-86
2022/07/04 12:19:34;;;;;;;;;;;;;;;22.71;57.58;101312.50;4907405;28;124060;-84
2022/07/04 12:22:00;;;;;;;;;;;;;;;22.69;57.11;101313.03;4888487;28;124522;-86
2022/07/04 12:24:38;;;;;;;;;;;;;;;22.67;56.88;101321.19;4898008;28;121568;-87
2022/07/04 12:27:04;;;;;;;;;;;;;;;22.68;56.80;101308.72;4896197;28;122064;-86
2022/07/04 12:29:29;;;;;;;;;;;;;;;22.70;57.34;101308.19;4904318;28;121301;-85
2022/07/04 12:31:55;;;;;;;;;;;;;;;22.75;56.65;101301.81;4874268;28;123826;-86
2022/07/04 12:34:20;;;;;;;;;;;;;;;22.78;57.19;101309.16;4901337;28;121800;-87
2022/07/04 12:36:56;;;;;;;;;;;;;;;22.81;56.11;101313.72;4890356;28;121542;-85
2022/07/04 12:39:28;;;;;;;;;;;;;;;22.81;54.72;101306.13;4889607;28;123696;-88
2022/07/04 12:42:03;;;;;;;;;;;;;;;22.83;54.43;101314.75;4881932;28;125167;-86
2022/07/04 12:44:29;;;;;;;;;;;;;;;22.85;54.49;101305.81;4911590;28;121739;-85
2022/07/04 12:46:58;;;;;;;;;;;;;;;22.88;54.71;101305.53;4902471;28;122399;-86
2022/07/04 12:49:24;;;;;;;;;;;;;;;22.92;54.20;101308.03;4885021;28;121499;-87
2022/07/04 12:51:49;;;;;;;;;;;;;;;22.93;53.97;101303.97;4888968;28;124486;-87
2022/07/04 12:54:15;;;;;;;;;;;;;;;22.92;53.24;101308.03;4903245;28;121776;-86